sensor_id;sensor_type;location;lat;lon;timestamp;temperature;humidity
45969;DHT22;31676;40.444;-3.668;2022-08-01T06:37:06;28.30;68.40
45969;DHT22;31676;40.444;-3.668;2022-08-01T06:39:32;28.40;68.50
45969;DHT22;31676;40.444;-3.668;2022-08-01T06:41:58;28.40;68.50
45969;DHT22;31676;40.444;-3.668;2022-08-01T06:44:23;28.40;68.50
45969;DHT22;31676;40.444;-3.668;2022-08-01T06:46:49;28.40;68.50
45969;DHT22;31676;40.444;-3.668;2022-08-01T06:49:15;28.40;68.50
45969;DHT22;31676;40.444;-3.668;2022-08-01T06:51:40;28.40;68.50
45969;DHT22;31676;40.444;-3.668;2022-08-01T06:54:06;28.40;68.50
45969;DHT22;31676;40.444;-3.668;2022-08-01T06:56:32;28.40;68.50
45969;DHT22;31676;40.444;-3.668;2022-08-01T06:59:00;28.40;68.50
45969;DHT22;31676;40.444;-3.668;2022-08-01T07:01:29;28.40;68.50
45969;DHT22;31676;40.444;-3.668;2022-08-01T07:03:54;28.40;68.50
45969;DHT22;31676;40.444;-3.668;2022-08-01T07:06:21;28.40;68.50
45969;DHT22;31676;40.444;-3.668;2022-08-01T07:08:47;28.40;69.10
45969;DHT22;31676;40.444;-3.668;2022-08-01T07:11:12;28.40;68.50
45969;DHT22;31676;40.444;-3.668;2022-08-01T07:13:38;28.40;68.50
45969;DHT22;31676;40.444;-3.668;2022-08-01T07:16:04;28.40;68.50
45969;DHT22;31676;40.444;-3.668;2022-08-01T07:18:29;28.40;68.50
45969;DHT22;31676;40.444;-3.668;2022-08-01T07:20:55;28.40;68.50
45969;DHT22;31676;40.444;-3.668;2022-08-01T07:23:21;28.40;68.50
45969;DHT22;31676;40.444;-3.668;2022-08-01T07:25:47;28.40;68.50
45969;DHT22;31676;40.444;-3.668;2022-08-01T07:28:14;28.40;68.40
45969;DHT22;31676;40.444;-3.668;2022-08-01T07:30:40;28.40;68.50
45969;DHT22;31676;40.444;-3.668;2022-08-01T07:33:07;28.40;68.50
45969;DHT22;31676;40.444;-3.668;2022-08-01T07:35:33;28.40;68.50
45969;DHT22;31676;40.444;-3.668;2022-08-01T07:37:59;28.40;68.50
45969;DHT22;31676;40.444;-3.668;2022-08-01T07:40:25;28.40;68.50
45969;DHT22;31676;40.444;-3.668;2022-08-01T07:42:50;28.40;68.50
45969;DHT22;31676;40.444;-3.668;2022-08-01T07:45:16;28.40;68.40
45969;DHT22;31676;40.444;-3.668;2022-08-01T07:47:42;28.40;68.40
45969;DHT22;31676;40.444;-3.668;2022-08-01T07:50:07;28.40;68.40
45969;DHT22;31676;40.444;-3.668;2022-08-01T07:52:33;28.40;68.40
45969;DHT22;31676;40.444;-3.668;2022-08-01T07:54:59;28.40;68.50
45969;DHT22;31676;40.444;-3.668;2022-08-01T07:57:25;28.40;68.40
45969;DHT22;31676;40.444;-3.668;2022-08-01T07:59:51;28.40;68.40
45969;DHT22;31676;40.444;-3.668;2022-08-01T08:02:17;28.40;68.40
45969;DHT22;31676;40.444;-3.668;2022-08-01T08:04:42;28.40;68.40
45969;DHT22;31676;40.444;-3.668;2022-08-01T08:07:08;28.40;68.40
45969;DHT22;31676;40.444;-3.668;2022-08-01T08:09:34;28.40;68.40
45969;DHT22;31676;40.444;-3.668;2022-08-01T08:12:00;28.40;68.30
45969;DHT22;31676;40.444;-3.668;2022-08-01T08:14:25;28.40;68.30
45969;DHT22;31676;40.444;-3.668;2022-08-01T08:16:51;28.40;68.40
45969;DHT22;31676;40.444;-3.668;2022-08-01T08:19:17;28.40;68.30
45969;DHT22;31676;40.444;-3.668;2022-08-01T08:21:44;28.40;68.30
45969;DHT22;31676;40.444;-3.668;2022-08-01T08:24:09;28.40;68.30
45969;DHT22;31676;40.444;-3.668;2022-08-01T08:26:54;28.40;68.30
45969;DHT22;31676;40.444;-3.668;2022-08-01T08:29:20;28.40;68.30
45969;DHT22;31676;40.444;-3.668;2022-08-01T08:31:47;28.40;68.30
45969;DHT22;31676;40.444;-3.668;2022-08-01T08:34:12;28.40;68.30
45969;DHT22;31676;40.444;-3.668;2022-08-01T08:36:38;28.40;68.30
45969;DHT22;31676;40.444;-3.668;2022-08-01T08:39:04;28.40;68.30
45969;DHT22;31676;40.444;-3.668;2022-08-01T08:41:30;28.40;68.30
45969;DHT22;31676;40.444;-3.668;2022-08-01T08:43:56;28.40;68.30
45969;DHT22;31676;40.444;-3.668;2022-08-01T08:46:27;28.40;68.20
45969;DHT22;31676;40.444;-3.668;2022-08-01T08:48:53;28.40;68.30
45969;DHT22;31676;40.444;-3.668;2022-08-01T08:51:19;28.40;68.20
45969;DHT22;31676;40.444;-3.668;2022-08-01T08:53:46;28.40;68.20
45969;DHT22;31676;40.444;-3.668;2022-08-01T08:56:12;28.50;68.30
45969;DHT22;31676;40.444;-3.668;2022-08-01T08:58:38;28.50;68.30
45969;DHT22;31676;40.444;-3.668;2022-08-01T09:01:06;28.40;68.20
45969;DHT22;31676;40.444;-3.668;2022-08-01T09:03:34;28.50;68.20
45969;DHT22;31676;40.444;-3.668;2022-08-01T09:05:59;28.50;68.20
45969;DHT22;31676;40.444;-3.668;2022-08-01T09:08:25;28.50;68.20
45969;DHT22;31676;40.444;-3.668;2022-08-01T09:10:51;28.50;68.20
45969;DHT22;31676;40.444;-3.668;2022-08-01T09:13:17;28.50;68.10
45969;DHT22;31676;40.444;-3.668;2022-08-01T09:18:12;28.50;68.10
45969;DHT22;31676;40.444;-3.668;2022-08-01T09:20:51;28.50;68.10
45969;DHT22;31676;40.444;-3.668;2022-08-01T09:25:58;28.50;68.10
45969;DHT22;31676;40.444;-3.668;2022-08-01T09:28:27;28.50;68.10
45969;DHT22;31676;40.444;-3.668;2022-08-01T09:30:55;28.50;68.00
45969;DHT22;31676;40.444;-3.668;2022-08-01T09:33:20;28.50;68.00
45969;DHT22;31676;40.444;-3.668;2022-08-01T09:35:48;28.50;68.00
45969;DHT22;31676;40.444;-3.668;2022-08-01T09:38:19;28.70;68.10
45969;DHT22;31676;40.444;-3.668;2022-08-01T09:40:58;28.60;68.00
45969;DHT22;31676;40.444;-3.668;2022-08-01T09:43:26;28.60;68.00
45969;DHT22;31676;40.444;-3.668;2022-08-01T09:45:52;28.60;68.00
45969;DHT22;31676;40.444;-3.668;2022-08-01T09:48:18;28.60;68.00
45969;DHT22;31676;40.444;-3.668;2022-08-01T09:50:46;28.60;68.00
45969;DHT22;31676;40.444;-3.668;2022-08-01T09:53:12;28.50;67.90
45969;DHT22;31676;40.444;-3.668;2022-08-01T09:55:39;28.60;67.90
45969;DHT22;31676;40.444;-3.668;2022-08-01T09:58:05;28.60;67.90
45969;DHT22;31676;40.444;-3.668;2022-08-01T10:00:31;28.60;67.90
45969;DHT22;31676;40.444;-3.668;2022-08-01T10:02:57;28.60;67.90
45969;DHT22;31676;40.444;-3.668;2022-08-01T10:05:30;28.60;67.90
45969;DHT22;31676;40.444;-3.668;2022-08-01T10:07:57;28.60;67.90
45969;DHT22;31676;40.444;-3.668;2022-08-01T10:10:23;28.60;67.90
45969;DHT22;31676;40.444;-3.668;2022-08-01T10:12:49;28.70;67.90
45969;DHT22;31676;40.444;-3.668;2022-08-01T10:15:17;28.70;67.80
45969;DHT22;31676;40.444;-3.668;2022-08-01T10:17:50;28.60;67.80
45969;DHT22;31676;40.444;-3.668;2022-08-01T10:20:19;28.70;67.80
45969;DHT22;31676;40.444;-3.668;2022-08-01T10:22:45;28.70;67.80
45969;DHT22;31676;40.444;-3.668;2022-08-01T10:25:11;28.70;67.80
45969;DHT22;31676;40.444;-3.668;2022-08-01T10:27:42;28.70;67.80
45969;DHT22;31676;40.444;-3.668;2022-08-01T10:30:11;28.70;67.80
45969;DHT22;31676;40.444;-3.668;2022-08-01T10:32:37;28.70;67.80
45969;DHT22;31676;40.444;-3.668;2022-08-01T10:35:03;28.70;67.70
45969;DHT22;31676;40.444;-3.668;2022-08-01T10:37:29;28.70;67.70
45969;DHT22;31676;40.444;-3.668;2022-08-01T10:39:55;28.70;67.70
45969;DHT22;31676;40.444;-3.668;2022-08-01T10:42:21;28.70;67.70
45969;DHT22;31676;40.444;-3.668;2022-08-01T10:44:47;28.70;67.70
45969;DHT22;31676;40.444;-3.668;2022-08-01T10:47:14;28.70;67.70
45969;DHT22;31676;40.444;-3.668;2022-08-01T10:49:48;28.70;67.70
45969;DHT22;31676;40.444;-3.668;2022-08-01T10:52:16;28.70;67.70
45969;DHT22;31676;40.444;-3.668;2022-08-01T10:54:42;28.80;67.80
45969;DHT22;31676;40.444;-3.668;2022-08-01T10:57:08;28.70;67.70
45969;DHT22;31676;40.444;-3.668;2022-08-01T10:59:36;28.70;67.60
45969;DHT22;31676;40.444;-3.668;2022-08-01T11:02:12;28.80;67.70
45969;DHT22;31676;40.444;-3.668;2022-08-01T11:04:54;28.80;67.70
45969;DHT22;31676;40.444;-3.668;2022-08-01T11:07:35;28.80;67.70
45969;DHT22;31676;40.444;-3.668;2022-08-01T11:10:04;28.80;67.70
45969;DHT22;31676;40.444;-3.668;2022-08-01T11:12:39;28.80;67.70
45969;DHT22;31676;40.444;-3.668;2022-08-01T11:22:30;28.80;67.60
45969;DHT22;31676;40.444;-3.668;2022-08-01T11:24:56;28.80;67.60
45969;DHT22;31676;40.444;-3.668;2022-08-01T11:27:25;28.90;67.70
45969;DHT22;31676;40.444;-3.668;2022-08-01T11:32:46;28.90;67.60
45969;DHT22;31676;40.444;-3.668;2022-08-01T11:35:12;28.90;67.60
45969;DHT22;31676;40.444;-3.668;2022-08-01T11:37:38;28.90;67.60
45969;DHT22;31676;40.444;-3.668;2022-08-01T11:40:17;28.90;67.60
45969;DHT22;31676;40.444;-3.668;2022-08-01T11:42:43;28.90;67.60
45969;DHT22;31676;40.444;-3.668;2022-08-01T11:45:09;28.90;67.60
45969;DHT22;31676;40.444;-3.668;2022-08-01T11:50:29;28.90;67.60
45969;DHT22;31676;40.444;-3.668;2022-08-01T11:52:59;28.90;67.60
45969;DHT22;31676;40.444;-3.668;2022-08-01T11:55:25;28.90;67.60
45969;DHT22;31676;40.444;-3.668;2022-08-01T11:57:57;28.90;67.50
45969;DHT22;31676;40.444;-3.668;2022-08-01T12:00:23;28.90;67.50
45969;DHT22;31676;40.444;-3.668;2022-08-01T12:02:56;29.00;67.60
45969;DHT22;31676;40.444;-3.668;2022-08-01T12:05:22;29.00;67.60
45969;DHT22;31676;40.444;-3.668;2022-08-01T12:07:51;29.00;67.50
45969;DHT22;31676;40.444;-3.668;2022-08-01T12:10:18;29.00;67.50
45969;DHT22;31676;40.444;-3.668;2022-08-01T12:15:10;29.00;67.50
45969;DHT22;31676;40.444;-3.668;2022-08-01T12:17:37;29.00;67.50
45969;DHT22;31676;40.444;-3.668;2022-08-01T12:20:04;29.00;67.50
45969;DHT22;31676;40.444;-3.668;2022-08-01T12:22:30;29.00;67.50
45969;DHT22;31676;40.444;-3.668;2022-08-01T12:24:56;29.00;67.50
45969;DHT22;31676;40.444;-3.668;2022-08-01T12:27:30;29.10;67.50
45969;DHT22;31676;40.444;-3.668;2022-08-01T12:29:57;29.00;67.50
45969;DHT22;31676;40.444;-3.668;2022-08-01T12:32:24;29.10;67.60
45969;DHT22;31676;40.444;-3.668;2022-08-01T12:34:50;29.10;67.50
45969;DHT22;31676;40.444;-3.668;2022-08-01T12:37:16;29.10;67.50
45969;DHT22;31676;40.444;-3.668;2022-08-01T12:39:43;29.10;67.50
45969;DHT22;31676;40.444;-3.668;2022-08-01T12:42:09;29.10;67.60
45969;DHT22;31676;40.444;-3.668;2022-08-01T12:44:36;29.10;67.50
45969;DHT22;31676;40.444;-3.668;2022-08-01T12:47:03;29.10;67.50
45969;DHT22;31676;40.444;-3.668;2022-08-01T12:49:29;29.10;67.50
45969;DHT22;31676;40.444;-3.668;2022-08-01T12:51:55;29.10;67.50
45969;DHT22;31676;40.444;-3.668;2022-08-01T12:54:21;29.10;67.50
45969;DHT22;31676;40.444;-3.668;2022-08-01T12:56:47;29.10;67.40
45969;DHT22;31676;40.444;-3.668;2022-08-01T12:59:26;29.10;67.40
45969;DHT22;31676;40.444;-3.668;2022-08-01T13:01:53;29.20;67.50
45969;DHT22;31676;40.444;-3.668;2022-08-01T13:04:19;29.20;67.50
45969;DHT22;31676;40.444;-3.668;2022-08-01T13:06:45;29.20;67.50
45969;DHT22;31676;40.444;-3.668;2022-08-01T13:09:11;29.20;67.50
45969;DHT22;31676;40.444;-3.668;2022-08-01T13:11:37;29.20;67.50
45969;DHT22;31676;40.444;-3.668;2022-08-01T13:14:03;29.20;67.40
45969;DHT22;31676;40.444;-3.668;2022-08-01T13:16:29;29.20;67.50
45969;DHT22;31676;40.444;-3.668;2022-08-01T13:18:55;29.20;67.40
45969;DHT22;31676;40.444;-3.668;2022-08-01T13:21:28;29.20;67.50
45969;DHT22;31676;40.444;-3.668;2022-08-01T13:24:04;29.20;67.40
45969;DHT22;31676;40.444;-3.668;2022-08-01T13:29:07;29.20;67.40
45969;DHT22;31676;40.444;-3.668;2022-08-01T13:31:36;29.20;67.40
45969;DHT22;31676;40.444;-3.668;2022-08-01T13:34:02;29.30;67.50
45969;DHT22;31676;40.444;-3.668;2022-08-01T13:36:28;29.20;67.40
45969;DHT22;31676;40.444;-3.668;2022-08-01T13:38:55;29.20;67.40
45969;DHT22;31676;40.444;-3.668;2022-08-01T13:41:39;29.20;67.40
45969;DHT22;31676;40.444;-3.668;2022-08-01T13:44:05;29.30;67.50
45969;DHT22;31676;40.444;-3.668;2022-08-01T13:46:31;29.30;67.50
45969;DHT22;31676;40.444;-3.668;2022-08-01T13:48:57;29.30;67.50
45969;DHT22;31676;40.444;-3.668;2022-08-01T13:51:22;29.30;67.40
45969;DHT22;31676;40.444;-3.668;2022-08-01T13:53:48;29.30;67.40
45969;DHT22;31676;40.444;-3.668;2022-08-01T13:56:14;29.30;67.40
45969;DHT22;31676;40.444;-3.668;2022-08-01T13:58:43;29.30;67.50
45969;DHT22;31676;40.444;-3.668;2022-08-01T14:01:08;29.30;67.50
45969;DHT22;31676;40.444;-3.668;2022-08-01T14:03:34;29.30;67.40
45969;DHT22;31676;40.444;-3.668;2022-08-01T14:06:00;29.30;67.40
45969;DHT22;31676;40.444;-3.668;2022-08-01T14:08:26;29.30;67.50
45969;DHT22;31676;40.444;-3.668;2022-08-01T14:10:51;29.30;67.40
45969;DHT22;31676;40.444;-3.668;2022-08-01T14:13:19;29.30;67.40
45969;DHT22;31676;40.444;-3.668;2022-08-01T14:15:44;29.30;67.50
45969;DHT22;31676;40.444;-3.668;2022-08-01T14:18:10;29.30;67.40
45969;DHT22;31676;40.444;-3.668;2022-08-01T14:20:36;29.30;67.40
45969;DHT22;31676;40.444;-3.668;2022-08-01T14:23:02;29.30;67.40
45969;DHT22;31676;40.444;-3.668;2022-08-01T14:25:28;29.30;67.40
45969;DHT22;31676;40.444;-3.668;2022-08-01T14:27:54;29.40;67.50
45969;DHT22;31676;40.444;-3.668;2022-08-01T14:30:20;29.30;67.40
45969;DHT22;31676;40.444;-3.668;2022-08-01T14:32:45;29.30;67.40
45969;DHT22;31676;40.444;-3.668;2022-08-01T14:35:11;29.40;67.50
45969;DHT22;31676;40.444;-3.668;2022-08-01T14:37:37;29.40;67.50
45969;DHT22;31676;40.444;-3.668;2022-08-01T14:40:03;29.40;67.50
45969;DHT22;31676;40.444;-3.668;2022-08-01T14:42:29;29.40;67.60
45969;DHT22;31676;40.444;-3.668;2022-08-01T14:44:55;29.40;67.50
45969;DHT22;31676;40.444;-3.668;2022-08-01T14:47:21;29.40;67.50
45969;DHT22;31676;40.444;-3.668;2022-08-01T14:49:47;29.30;67.50
45969;DHT22;31676;40.444;-3.668;2022-08-01T14:52:12;29.40;67.50
45969;DHT22;31676;40.444;-3.668;2022-08-01T14:54:38;29.30;67.40
45969;DHT22;31676;40.444;-3.668;2022-08-01T14:57:04;29.40;67.50
45969;DHT22;31676;40.444;-3.668;2022-08-01T14:59:29;29.40;67.50
45969;DHT22;31676;40.444;-3.668;2022-08-01T15:01:55;29.40;67.50
45969;DHT22;31676;40.444;-3.668;2022-08-01T15:04:21;29.40;67.50
45969;DHT22;31676;40.444;-3.668;2022-08-01T15:06:47;29.40;67.50
45969;DHT22;31676;40.444;-3.668;2022-08-01T15:09:12;29.40;67.50
45969;DHT22;31676;40.444;-3.668;2022-08-01T15:11:38;29.40;67.50
45969;DHT22;31676;40.444;-3.668;2022-08-01T15:14:04;29.40;67.50
45969;DHT22;31676;40.444;-3.668;2022-08-01T15:16:48;29.40;67.50
45969;DHT22;31676;40.444;-3.668;2022-08-01T15:19:13;29.40;67.50
45969;DHT22;31676;40.444;-3.668;2022-08-01T15:21:39;29.40;67.50
45969;DHT22;31676;40.444;-3.668;2022-08-01T15:24:05;29.40;67.50
45969;DHT22;31676;40.444;-3.668;2022-08-01T15:26:31;29.40;67.50
45969;DHT22;31676;40.444;-3.668;2022-08-01T15:28:57;29.40;67.50
45969;DHT22;31676;40.444;-3.668;2022-08-01T15:31:23;29.40;67.50
45969;DHT22;31676;40.444;-3.668;2022-08-01T15:33:48;29.40;68.20
45969;DHT22;31676;40.444;-3.668;2022-08-01T15:36:14;29.40;67.60
45969;DHT22;31676;40.444;-3.668;2022-08-01T15:38:40;29.40;67.50
45969;DHT22;31676;40.444;-3.668;2022-08-01T15:41:05;29.40;67.50
45969;DHT22;31676;40.444;-3.668;2022-08-01T15:43:31;29.40;67.60
45969;DHT22;31676;40.444;-3.668;2022-08-01T15:45:57;29.40;67.60
45969;DHT22;31676;40.444;-3.668;2022-08-01T15:48:23;29.40;67.60
45969;DHT22;31676;40.444;-3.668;2022-08-01T15:50:49;29.40;67.60
45969;DHT22;31676;40.444;-3.668;2022-08-01T15:53:15;29.40;67.60
45969;DHT22;31676;40.444;-3.668;2022-08-01T15:55:41;29.40;67.60
45969;DHT22;31676;40.444;-3.668;2022-08-01T15:58:07;29.40;67.60
45969;DHT22;31676;40.444;-3.668;2022-08-01T16:00:33;29.40;67.60
45969;DHT22;31676;40.444;-3.668;2022-08-01T16:02:58;29.40;67.60
45969;DHT22;31676;40.444;-3.668;2022-08-01T16:05:24;29.40;67.60
45969;DHT22;31676;40.444;-3.668;2022-08-01T16:07:50;29.40;67.60
45969;DHT22;31676;40.444;-3.668;2022-08-01T16:10:16;29.40;67.60
45969;DHT22;31676;40.444;-3.668;2022-08-01T16:12:41;29.40;67.60
45969;DHT22;31676;40.444;-3.668;2022-08-01T16:15:07;29.40;67.60
45969;DHT22;31676;40.444;-3.668;2022-08-01T16:17:33;29.40;67.60
45969;DHT22;31676;40.444;-3.668;2022-08-01T16:19:59;29.40;67.60
45969;DHT22;31676;40.444;-3.668;2022-08-01T16:22:25;29.40;67.60
45969;DHT22;31676;40.444;-3.668;2022-08-01T16:24:50;29.40;67.60
45969;DHT22;31676;40.444;-3.668;2022-08-01T16:27:16;29.40;67.60
45969;DHT22;31676;40.444;-3.668;2022-08-01T16:29:42;29.40;67.60
45969;DHT22;31676;40.444;-3.668;2022-08-01T16:32:07;29.40;67.60
45969;DHT22;31676;40.444;-3.668;2022-08-01T16:34:33;29.40;67.60
45969;DHT22;31676;40.444;-3.668;2022-08-01T16:36:59;29.40;67.60
45969;DHT22;31676;40.444;-3.668;2022-08-01T16:39:25;29.40;67.60
45969;DHT22;31676;40.444;-3.668;2022-08-01T16:41:51;29.50;67.70
45969;DHT22;31676;40.444;-3.668;2022-08-01T16:44:16;29.40;67.60
45969;DHT22;31676;40.444;-3.668;2022-08-01T16:46:42;29.50;67.70
45969;DHT22;31676;40.444;-3.668;2022-08-01T16:49:08;29.50;67.60
45969;DHT22;31676;40.444;-3.668;2022-08-01T16:51:35;29.50;67.60
45969;DHT22;31676;40.444;-3.668;2022-08-01T16:54:00;29.50;67.60
45969;DHT22;31676;40.444;-3.668;2022-08-01T16:56:26;29.50;67.60
45969;DHT22;31676;40.444;-3.668;2022-08-01T16:58:52;29.50;67.60
45969;DHT22;31676;40.444;-3.668;2022-08-01T17:01:18;29.50;67.60
45969;DHT22;31676;40.444;-3.668;2022-08-01T17:03:44;29.50;67.60
45969;DHT22;31676;40.444;-3.668;2022-08-01T17:06:10;29.50;67.70
45969;DHT22;31676;40.444;-3.668;2022-08-01T17:08:36;29.50;67.70
45969;DHT22;31676;40.444;-3.668;2022-08-01T17:11:01;29.50;67.60
45969;DHT22;31676;40.444;-3.668;2022-08-01T17:13:27;29.50;67.70
45969;DHT22;31676;40.444;-3.668;2022-08-01T17:15:53;29.50;67.70
45969;DHT22;31676;40.444;-3.668;2022-08-01T17:18:19;29.50;67.70
45969;DHT22;31676;40.444;-3.668;2022-08-01T17:20:45;29.50;67.60
45969;DHT22;31676;40.444;-3.668;2022-08-01T17:23:17;29.50;67.60
45969;DHT22;31676;40.444;-3.668;2022-08-01T17:25:43;29.50;67.60
45969;DHT22;31676;40.444;-3.668;2022-08-01T17:28:09;29.50;67.60
45969;DHT22;31676;40.444;-3.668;2022-08-01T17:30:35;29.50;67.60
45969;DHT22;31676;40.444;-3.668;2022-08-01T17:33:03;29.50;67.60
45969;DHT22;31676;40.444;-3.668;2022-08-01T17:35:28;29.50;67.60
45969;DHT22;31676;40.444;-3.668;2022-08-01T17:37:54;29.50;67.60
45969;DHT22;31676;40.444;-3.668;2022-08-01T17:40:20;29.50;67.60
45969;DHT22;31676;40.444;-3.668;2022-08-01T17:42:46;29.50;67.60
45969;DHT22;31676;40.444;-3.668;2022-08-01T17:45:12;29.60;67.60
45969;DHT22;31676;40.444;-3.668;2022-08-01T17:47:38;29.50;67.60
45969;DHT22;31676;40.444;-3.668;2022-08-01T17:50:04;29.60;67.70
45969;DHT22;31676;40.444;-3.668;2022-08-01T17:52:31;29.50;67.60
45969;DHT22;31676;40.444;-3.668;2022-08-01T17:54:57;29.60;67.60
45969;DHT22;31676;40.444;-3.668;2022-08-01T17:57:23;29.60;67.70
45969;DHT22;31676;40.444;-3.668;2022-08-01T17:59:49;29.60;67.60
45969;DHT22;31676;40.444;-3.668;2022-08-01T18:02:15;29.60;67.60
45969;DHT22;31676;40.444;-3.668;2022-08-01T18:04:41;29.60;67.60
45969;DHT22;31676;40.444;-3.668;2022-08-01T18:07:06;29.60;67.60
45969;DHT22;31676;40.444;-3.668;2022-08-01T18:09:33;29.60;67.60
45969;DHT22;31676;40.444;-3.668;2022-08-01T18:11:59;29.60;67.60
45969;DHT22;31676;40.444;-3.668;2022-08-01T18:14:25;29.60;67.60
45969;DHT22;31676;40.444;-3.668;2022-08-01T18:16:51;29.60;67.60
45969;DHT22;31676;40.444;-3.668;2022-08-01T18:19:17;29.60;67.60
45969;DHT22;31676;40.444;-3.668;2022-08-01T18:21:48;29.60;67.60
45969;DHT22;31676;40.444;-3.668;2022-08-01T18:24:14;29.60;67.60
45969;DHT22;31676;40.444;-3.668;2022-08-01T18:26:46;29.60;67.60
45969;DHT22;31676;40.444;-3.668;2022-08-01T18:29:13;29.60;67.60
45969;DHT22;31676;40.444;-3.668;2022-08-01T18:31:38;29.60;67.60
45969;DHT22;31676;40.444;-3.668;2022-08-01T18:34:04;29.60;67.60
45969;DHT22;31676;40.444;-3.668;2022-08-01T18:36:30;29.60;67.60
45969;DHT22;31676;40.444;-3.668;2022-08-01T18:38:56;29.60;67.60
45969;DHT22;31676;40.444;-3.668;2022-08-01T18:41:22;29.60;67.60
45969;DHT22;31676;40.444;-3.668;2022-08-01T18:43:47;29.60;67.60
45969;DHT22;31676;40.444;-3.668;2022-08-01T18:46:13;29.60;67.60
45969;DHT22;31676;40.444;-3.668;2022-08-01T18:48:39;29.60;67.60
45969;DHT22;31676;40.444;-3.668;2022-08-01T18:51:05;29.60;67.60
45969;DHT22;31676;40.444;-3.668;2022-08-01T18:53:32;29.60;67.60
45969;DHT22;31676;40.444;-3.668;2022-08-01T18:55:58;29.60;67.60
45969;DHT22;31676;40.444;-3.668;2022-08-01T18:58:24;29.60;67.60
45969;DHT22;31676;40.444;-3.668;2022-08-01T19:00:49;29.60;67.60
45969;DHT22;31676;40.444;-3.668;2022-08-01T19:03:15;29.60;67.60
45969;DHT22;31676;40.444;-3.668;2022-08-01T19:05:41;29.60;67.60
45969;DHT22;31676;40.444;-3.668;2022-08-01T19:08:07;29.60;67.60
45969;DHT22;31676;40.444;-3.668;2022-08-01T19:10:34;29.70;67.70
45969;DHT22;31676;40.444;-3.668;2022-08-01T19:12:59;29.70;67.70
45969;DHT22;31676;40.444;-3.668;2022-08-01T19:15:26;29.60;67.60
45969;DHT22;31676;40.444;-3.668;2022-08-01T19:17:52;29.60;67.60
45969;DHT22;31676;40.444;-3.668;2022-08-01T19:20:17;29.60;67.60
45969;DHT22;31676;40.444;-3.668;2022-08-01T19:22:43;29.60;67.60
45969;DHT22;31676;40.444;-3.668;2022-08-01T19:25:09;29.70;67.70
45969;DHT22;31676;40.444;-3.668;2022-08-01T19:27:34;29.60;67.60
45969;DHT22;31676;40.444;-3.668;2022-08-01T19:30:02;29.70;67.70
45969;DHT22;31676;40.444;-3.668;2022-08-01T19:32:29;29.70;67.70
45969;DHT22;31676;40.444;-3.668;2022-08-01T19:37:23;29.60;67.60
45969;DHT22;31676;40.444;-3.668;2022-08-01T19:39:49;29.70;67.70
45969;DHT22;31676;40.444;-3.668;2022-08-01T19:42:16;29.70;67.70
45969;DHT22;31676;40.444;-3.668;2022-08-01T19:44:42;29.70;67.70
45969;DHT22;31676;40.444;-3.668;2022-08-01T19:47:08;29.70;67.70
45969;DHT22;31676;40.444;-3.668;2022-08-01T19:49:34;29.70;67.70
45969;DHT22;31676;40.444;-3.668;2022-08-01T19:52:01;29.60;67.60
45969;DHT22;31676;40.444;-3.668;2022-08-01T19:54:37;29.60;67.60
45969;DHT22;31676;40.444;-3.668;2022-08-01T19:57:04;29.60;67.70
45969;DHT22;31676;40.444;-3.668;2022-08-01T19:59:31;29.60;67.70
45969;DHT22;31676;40.444;-3.668;2022-08-01T20:01:57;29.60;67.60
45969;DHT22;31676;40.444;-3.668;2022-08-01T20:04:24;29.70;67.80
45969;DHT22;31676;40.444;-3.668;2022-08-01T20:06:50;29.60;67.70
45969;DHT22;31676;40.444;-3.668;2022-08-01T20:09:18;29.60;67.70
45969;DHT22;31676;40.444;-3.668;2022-08-01T20:11:45;29.60;67.70
45969;DHT22;31676;40.444;-3.668;2022-08-01T20:14:15;29.60;67.70
45969;DHT22;31676;40.444;-3.668;2022-08-01T20:16:41;29.60;67.70
45969;DHT22;31676;40.444;-3.668;2022-08-01T20:19:07;29.60;67.60
45969;DHT22;31676;40.444;-3.668;2022-08-01T20:21:33;29.60;67.70
45969;DHT22;31676;40.444;-3.668;2022-08-01T20:23:59;29.60;67.70
45969;DHT22;31676;40.444;-3.668;2022-08-01T20:26:26;29.60;67.70
45969;DHT22;31676;40.444;-3.668;2022-08-01T20:28:52;29.60;67.70
45969;DHT22;31676;40.444;-3.668;2022-08-01T20:31:18;29.60;67.70
45969;DHT22;31676;40.444;-3.668;2022-08-01T20:33:45;29.60;67.70
45969;DHT22;31676;40.444;-3.668;2022-08-01T20:36:11;29.60;67.70
45969;DHT22;31676;40.444;-3.668;2022-08-01T20:38:38;29.60;67.70
45969;DHT22;31676;40.444;-3.668;2022-08-01T20:41:05;29.60;67.70
45969;DHT22;31676;40.444;-3.668;2022-08-01T20:43:31;29.60;67.70
45969;DHT22;31676;40.444;-3.668;2022-08-01T20:45:57;29.60;67.70
45969;DHT22;31676;40.444;-3.668;2022-08-01T20:48:26;29.60;67.70
45969;DHT22;31676;40.444;-3.668;2022-08-01T20:50:52;29.60;68.40
45969;DHT22;31676;40.444;-3.668;2022-08-01T20:53:37;29.60;67.70
45969;DHT22;31676;40.444;-3.668;2022-08-01T20:56:08;29.60;67.70
45969;DHT22;31676;40.444;-3.668;2022-08-01T21:01:03;29.60;67.70
45969;DHT22;31676;40.444;-3.668;2022-08-01T21:03:33;29.60;67.70
45969;DHT22;31676;40.444;-3.668;2022-08-01T21:06:03;29.60;67.70
45969;DHT22;31676;40.444;-3.668;2022-08-01T21:08:34;29.60;67.70
45969;DHT22;31676;40.444;-3.668;2022-08-01T21:11:01;29.60;67.70
45969;DHT22;31676;40.444;-3.668;2022-08-01T21:13:35;29.60;67.70
45969;DHT22;31676;40.444;-3.668;2022-08-01T21:16:01;29.60;67.70
45969;DHT22;31676;40.444;-3.668;2022-08-01T21:18:31;29.60;67.70
45969;DHT22;31676;40.444;-3.668;2022-08-01T21:20:58;29.60;67.70
45969;DHT22;31676;40.444;-3.668;2022-08-01T21:26:09;29.60;67.70
45969;DHT22;31676;40.444;-3.668;2022-08-01T21:28:34;29.60;67.70
45969;DHT22;31676;40.444;-3.668;2022-08-01T21:31:00;29.60;67.70
45969;DHT22;31676;40.444;-3.668;2022-08-01T21:33:27;29.60;67.70
45969;DHT22;31676;40.444;-3.668;2022-08-01T21:35:53;29.50;67.70
45969;DHT22;31676;40.444;-3.668;2022-08-01T21:38:20;29.60;67.70
45969;DHT22;31676;40.444;-3.668;2022-08-01T21:40:46;29.60;67.70
45969;DHT22;31676;40.444;-3.668;2022-08-01T21:43:13;29.60;67.70
45969;DHT22;31676;40.444;-3.668;2022-08-01T21:45:39;29.60;67.70
45969;DHT22;31676;40.444;-3.668;2022-08-01T21:48:06;29.60;67.80
45969;DHT22;31676;40.444;-3.668;2022-08-01T21:50:38;29.60;67.70
45969;DHT22;31676;40.444;-3.668;2022-08-01T21:53:08;29.60;67.70
45969;DHT22;31676;40.444;-3.668;2022-08-01T21:56:18;29.50;67.70
45969;DHT22;31676;40.444;-3.668;2022-08-01T22:03:51;29.60;67.80
45969;DHT22;31676;40.444;-3.668;2022-08-01T22:06:18;29.60;67.70
45969;DHT22;31676;40.444;-3.668;2022-08-01T22:08:51;29.60;67.70
45969;DHT22;31676;40.444;-3.668;2022-08-01T22:11:19;29.50;67.70
45969;DHT22;31676;40.444;-3.668;2022-08-01T22:13:45;29.50;67.70
45969;DHT22;31676;40.444;-3.668;2022-08-01T22:16:11;29.50;67.70
45969;DHT22;31676;40.444;-3.668;2022-08-01T22:18:39;29.50;67.70
45969;DHT22;31676;40.444;-3.668;2022-08-01T22:21:05;29.50;67.70
45969;DHT22;31676;40.444;-3.668;2022-08-01T22:23:34;29.50;67.70
45969;DHT22;31676;40.444;-3.668;2022-08-01T22:26:01;29.50;67.70